Time;durP1;ratioP1;P1;durP2;ratioP2;P2;SDS_P1;SDS_P2;PMS_P1;PMS_P2;Temp;Humidity;BMP_temperature;BMP_pressure;BME280_temperature;BME280_humidity;BME280_pressure;Samples;Min_cycle;Max_cycle;Signal;HPM_P1;HPM_P2
2022/06/12 00:00:33;;;;;;;10.47;9.47;;;15.50;99.90;;;;;;5050959;28;20530;-69
2022/06/12 00:03:02;;;;;;;14.87;10.27;;;15.50;99.90;;;;;;5051637;28;20456;-70
2022/06/12 00:05:33;;;;;;;10.90;9.37;;;15.40;99.90;;;;;;5051241;28;20455;-69
2022/06/12 00:08:00;;;;;;;12.23;11.03;;;15.50;99.90;;;;;;5051253;28;20861;-70
2022/06/12 00:10:29;;;;;;;11.43;10.33;;;15.50;99.90;;;;;;5050470;28;21167;-70
2022/06/12 00:12:56;;;;;;;10.70;9.60;;;15.50;99.90;;;;;;5051534;28;20468;-69
2022/06/12 00:15:25;;;;;;;11.17;9.90;;;15.50;99.90;;;;;;5050850;28;20456;-70
2022/06/12 00:17:53;;;;;;;9.60;8.60;;;15.50;99.90;;;;;;5051451;28;20447;-69
2022/06/12 00:20:22;;;;;;;11.37;10.17;;;15.50;99.90;;;;;;5050584;28;20444;-69
2022/06/12 00:22:52;;;;;;;11.10;10.00;;;15.50;99.90;;;;;;5051209;28;20585;-69
2022/06/12 00:25:20;;;;;;;11.10;9.60;;;15.60;99.90;;;;;;5050852;28;20954;-70
2022/06/12 00:27:48;;;;;;;11.77;9.60;;;15.60;99.90;;;;;;5051384;28;20821;-70
2022/06/12 00:30:17;;;;;;;12.23;10.93;;;15.60;99.90;;;;;;5050405;28;20491;-69
2022/06/12 00:32:49;;;;;;;10.80;9.77;;;15.60;99.90;;;;;;5051024;28;20475;-69
2022/06/12 00:35:16;;;;;;;10.50;9.27;;;15.50;99.90;;;;;;5050564;28;20443;-71
2022/06/12 00:37:44;;;;;;;10.43;9.40;;;15.40;99.90;;;;;;5050843;28;20984;-70
2022/06/12 00:40:13;;;;;;;10.73;9.73;;;15.40;99.90;;;;;;5050256;28;20451;-70
2022/06/12 00:42:44;;;;;;;10.87;8.00;;;15.40;99.90;;;;;;5050959;28;20468;-68
2022/06/12 00:45:38;;;;;;;11.33;10.23;;;15.30;99.90;;;;;;5050528;28;20443;-69
2022/06/12 00:48:08;;;;;;;12.00;10.60;;;15.30;99.90;;;;;;5050786;28;20938;-69
2022/06/12 00:50:37;;;;;;;12.53;11.33;;;15.30;99.90;;;;;;5049912;28;20482;-69
2022/06/12 00:53:07;;;;;;;12.00;10.90;;;15.30;99.90;;;;;;5050737;28;20452;-69
2022/06/12 00:55:43;;;;;;;11.80;10.30;;;15.30;99.90;;;;;;5050230;28;20456;-69
2022/06/12 00:58:14;;;;;;;13.50;12.30;;;15.20;99.90;;;;;;5050488;28;20451;-69
2022/06/12 01:00:42;;;;;;;12.70;9.67;;;15.10;99.90;;;;;;5049868;28;20447;-69
2022/06/12 01:03:10;;;;;;;12.07;10.87;;;15.10;99.90;;;;;;5050517;28;20455;-70
2022/06/12 01:08:22;;;;;;;11.50;10.30;;;15.00;99.90;;;;;;5050616;28;20435;-69
2022/06/12 01:10:55;;;;;;;12.17;10.10;;;15.00;99.90;;;;;;5050213;28;20894;-69
2022/06/12 01:13:26;;;;;;;12.20;10.40;;;15.00;99.90;;;;;;5050859;28;20455;-69
2022/06/12 01:15:57;;;;;;;11.07;9.90;;;15.00;99.90;;;;;;5050317;28;20444;-69
2022/06/12 01:18:27;;;;;;;11.93;10.83;;;15.00;99.90;;;;;;5050634;28;20455;-69
2022/06/12 01:21:02;;;;;;;10.80;9.80;;;15.00;99.90;;;;;;5049540;28;21032;-69
2022/06/12 01:23:54;;;;;;;11.30;10.30;;;14.90;99.90;;;;;;5050620;28;20929;-69
2022/06/12 01:26:54;;;;;;;10.37;9.20;;;15.00;99.90;;;;;;5050295;28;20509;-70
2022/06/12 01:29:29;;;;;;;11.70;10.50;;;15.00;99.90;;;;;;5049741;28;20910;-69
2022/06/12 01:32:01;;;;;;;12.37;11.23;;;15.00;99.90;;;;;;5049577;28;20484;-69
2022/06/12 01:34:38;;;;;;;11.67;10.57;;;15.00;99.90;;;;;;5049920;28;20442;-69
2022/06/12 01:37:17;;;;;;;13.70;10.90;;;15.00;99.90;;;;;;5050077;28;20444;-69
2022/06/12 01:39:50;;;;;;;11.57;10.47;;;14.90;99.90;;;;;;5049562;28;20452;-67
2022/06/12 01:42:24;;;;;;;12.00;10.47;;;14.80;99.90;;;;;;5049979;28;20459;-69
2022/06/12 01:45:03;;;;;;;13.13;10.60;;;14.80;99.90;;;;;;5049589;28;20444;-69
2022/06/12 01:47:35;;;;;;;10.20;9.37;;;14.70;99.90;;;;;;5049863;28;20546;-69
2022/06/12 01:50:11;;;;;;;10.80;9.80;;;14.60;99.90;;;;;;5048896;28;20480;-69
2022/06/12 01:52:46;;;;;;;11.83;9.80;;;14.60;99.90;;;;;;5049852;28;20472;-70
2022/06/12 01:55:23;;;;;;;10.63;9.67;;;14.60;99.90;;;;;;5049414;28;20665;-70
2022/06/12 01:57:57;;;;;;;11.57;10.43;;;14.60;99.90;;;;;;5049668;28;20447;-70
2022/06/12 02:00:27;;;;;;;10.40;9.40;;;14.60;99.90;;;;;;5048672;28;20892;-69
2022/06/12 02:03:01;;;;;;;10.50;9.50;;;14.60;99.90;;;;;;5049316;28;20478;-70
2022/06/12 02:05:34;;;;;;;11.23;10.07;;;14.50;99.90;;;;;;5049321;28;20462;-69
2022/06/12 02:08:05;;;;;;;11.77;10.67;;;14.50;99.90;;;;;;5049725;28;20466;-70
2022/06/12 02:10:37;;;;;;;12.20;10.13;;;14.40;99.90;;;;;;5048600;28;20861;-70
2022/06/12 02:13:13;;;;;;;13.23;10.40;;;14.40;99.90;;;;;;5049393;28;20447;-70
2022/06/12 02:15:49;;;;;;;11.13;10.13;;;14.50;99.90;;;;;;5049229;28;20825;-69
2022/06/12 02:18:22;;;;;;;11.93;10.80;;;14.40;99.90;;;;;;5049488;28;20448;-71
2022/06/12 02:20:55;;;;;;;11.60;10.17;;;14.40;99.90;;;;;;5048639;28;20452;-70
2022/06/12 02:23:28;;;;;;;11.03;9.93;;;14.40;99.90;;;;;;5049404;28;20451;-70
2022/06/12 02:25:56;;;;;;;17.83;13.07;;;14.30;99.90;;;;;;5049046;28;20769;-70
2022/06/12 02:28:29;;;;;;;12.37;11.13;;;14.20;99.90;;;;;;5049336;28;20443;-70
2022/06/12 02:31:02;;;;;;;12.10;11.00;;;14.20;99.90;;;;;;5048559;28;20493;-70
2022/06/12 02:33:35;;;;;;;12.80;11.57;;;14.20;99.90;;;;;;5049399;28;20818;-70
2022/06/12 02:36:09;;;;;;;12.70;11.40;;;14.10;99.90;;;;;;5048837;28;20447;-69
2022/06/12 02:38:40;;;;;;;16.03;12.07;;;14.10;99.90;;;;;;5049470;28;20538;-69
2022/06/12 02:41:13;;;;;;;12.90;11.70;;;14.10;99.90;;;;;;5052419;28;20463;-70
2022/06/12 02:43:42;;;;;;;11.83;10.50;;;14.20;99.90;;;;;;5052839;28;20450;-70
2022/06/12 02:46:15;;;;;;;12.33;11.13;;;14.20;99.90;;;;;;5052757;28;20459;-70
2022/06/12 02:48:42;;;;;;;13.63;11.77;;;14.20;99.90;;;;;;5052925;28;20827;-70
2022/06/12 02:51:17;;;;;;;12.87;11.50;;;14.10;99.90;;;;;;5051972;28;20578;-70
2022/06/12 02:53:58;;;;;;;12.70;11.40;;;14.20;99.90;;;;;;5053044;28;20465;-70
2022/06/12 02:56:32;;;;;;;12.77;11.60;;;14.10;99.90;;;;;;5052916;28;20452;-69
2022/06/12 02:59:07;;;;;;;12.03;11.03;;;14.10;99.90;;;;;;5052787;28;20447;-69
2022/06/12 03:01:42;;;;;;;13.33;11.63;;;14.10;99.90;;;;;;5052206;28;20459;-70
2022/06/12 03:04:18;;;;;;;12.20;11.00;;;14.00;99.90;;;;;;5052908;28;20461;-70
2022/06/12 03:06:45;;;;;;;12.30;11.10;;;14.10;99.90;;;;;;5052753;28;20462;-70
2022/06/12 03:09:12;;;;;;;12.23;11.10;;;14.20;99.90;;;;;;5052625;28;20451;-69
2022/06/12 03:11:41;;;;;;;12.03;10.77;;;14.20;99.90;;;;;;5051603;28;20574;-71
2022/06/12 03:14:10;;;;;;;12.33;11.13;;;14.10;99.90;;;;;;5052752;28;20451;-69
2022/06/12 03:16:41;;;;;;;12.20;11.00;;;14.10;99.90;;;;;;5052229;28;20539;-70
2022/06/12 03:19:11;;;;;;;12.10;11.00;;;14.10;99.90;;;;;;5052552;28;20448;-69
2022/06/12 03:21:43;;;;;;;10.83;9.73;;;14.10;99.90;;;;;;5051535;28;20985;-70
2022/06/12 03:24:34;;;;;;;11.70;9.97;;;14.10;99.90;;;;;;5052376;28;20458;-70
2022/06/12 03:27:24;;;;;;;11.80;10.80;;;14.10;99.90;;;;;;5052483;28;20448;-68
2022/06/12 03:30:01;;;;;;;12.03;10.30;;;14.00;99.90;;;;;;5051543;28;21123;-69
2022/06/12 03:32:35;;;;;;;12.90;10.53;;;14.00;99.90;;;;;;5052046;28;20468;-69
2022/06/12 03:35:11;;;;;;;11.73;10.63;;;14.00;99.90;;;;;;5052064;28;20821;-70
2022/06/12 03:37:47;;;;;;;16.23;14.63;;;14.00;99.90;;;;;;5052458;28;20448;-69
2022/06/12 03:40:21;;;;;;;26.20;21.03;;;14.00;99.90;;;;;;5051366;28;20440;-69
2022/06/12 03:42:53;;;;;;;25.50;23.03;;;14.00;99.90;;;;;;5051886;28;20474;-70
2022/06/12 03:45:24;;;;;;;27.87;23.97;;;14.00;99.90;;;;;;5052083;28;20450;-69
2022/06/12 03:47:58;;;;;;;27.37;24.70;;;14.00;99.90;;;;;;5053892;28;20819;-69
2022/06/12 03:50:32;;;;;;;23.57;21.13;;;14.00;99.90;;;;;;5050863;28;20475;-70
2022/06/12 03:53:03;;;;;;;19.83;17.73;;;14.00;99.90;;;;;;5052218;28;20455;-70
2022/06/12 03:58:25;;;;;;;14.40;12.70;;;14.20;99.90;;;;;;5052173;28;20861;-71
2022/06/12 04:00:52;;;;;;;12.43;11.13;;;14.20;99.90;;;;;;5051264;28;20495;-70
2022/06/12 04:03:24;;;;;;;10.90;9.87;;;14.20;99.90;;;;;;5051914;28;20463;-70
2022/06/12 04:05:55;;;;;;;11.43;10.27;;;14.30;99.90;;;;;;5051548;28;20448;-70
2022/06/12 04:08:25;;;;;;;11.77;10.57;;;14.30;99.90;;;;;;5052027;28;20463;-70
2022/06/12 04:10:53;;;;;;;11.33;10.17;;;14.30;99.90;;;;;;5049237;28;20491;-70
2022/06/12 04:13:22;;;;;;;10.93;9.93;;;14.30;99.90;;;;;;5051869;28;20456;-70
2022/06/12 04:15:53;;;;;;;11.53;10.27;;;14.40;99.90;;;;;;5051058;28;20447;-69
2022/06/12 04:18:22;;;;;;;11.40;10.30;;;14.50;99.90;;;;;;5051328;28;20452;-69
2022/06/12 04:20:55;;;;;;;11.17;9.87;;;14.50;99.90;;;;;;5050647;28;20942;-70
2022/06/12 04:23:28;;;;;;;13.70;10.80;;;14.50;99.90;;;;;;5051451;28;20452;-69
2022/06/12 04:26:00;;;;;;;10.90;9.80;;;14.60;99.90;;;;;;5051061;28;20450;-70
2022/06/12 04:28:31;;;;;;;12.00;10.70;;;14.70;99.90;;;;;;5051397;28;20474;-70
2022/06/12 04:30:59;;;;;;;12.43;10.07;;;14.70;99.90;;;;;;5050180;28;20488;-70
2022/06/12 04:33:37;;;;;;;10.53;9.47;;;14.80;99.90;;;;;;5050957;28;20451;-69
2022/06/12 04:36:06;;;;;;;12.77;10.27;;;14.90;99.90;;;;;;5050887;28;20444;-70
2022/06/12 04:38:34;;;;;;;11.73;10.67;;;14.90;99.90;;;;;;5051106;28;20489;-67
2022/06/12 04:41:02;;;;;;;13.23;10.60;;;15.00;99.90;;;;;;5050195;28;20468;-70
2022/06/12 04:43:29;;;;;;;14.87;11.30;;;15.00;99.90;;;;;;5051035;28;20452;-69
2022/06/12 04:45:57;;;;;;;11.97;10.20;;;15.10;99.90;;;;;;5050484;28;20478;-70
2022/06/12 04:48:29;;;;;;;11.03;10.07;;;15.10;99.90;;;;;;5050650;28;20440;-70
2022/06/12 04:50:56;;;;;;;14.40;10.20;;;15.20;99.90;;;;;;5049769;28;20499;-70
2022/06/12 04:53:23;;;;;;;10.93;9.90;;;15.30;99.90;;;;;;5050790;28;20448;-68
2022/06/12 04:55:50;;;;;;;12.33;11.03;;;15.40;99.90;;;;;;5050267;28;20452;-71
2022/06/12 04:58:17;;;;;;;11.80;10.70;;;15.40;99.90;;;;;;5050656;28;20490;-70
2022/06/12 05:00:45;;;;;;;11.40;9.70;;;15.50;99.90;;;;;;5049650;28;20449;-70
2022/06/12 05:03:12;;;;;;;14.60;10.57;;;15.60;99.90;;;;;;5050030;28;20444;-69
2022/06/12 05:05:40;;;;;;;11.73;10.47;;;15.70;99.90;;;;;;5050100;28;20921;-70
2022/06/12 05:08:08;;;;;;;11.93;10.83;;;15.80;99.90;;;;;;5050438;28;20456;-70
2022/06/12 05:10:35;;;;;;;11.83;10.63;;;15.80;99.90;;;;;;5049349;28;20582;-69
2022/06/12 05:13:02;;;;;;;10.90;9.80;;;15.90;99.90;;;;;;5050336;28;20538;-70
2022/06/12 05:15:29;;;;;;;10.33;9.33;;;16.10;99.90;;;;;;5049763;28;20451;-70
2022/06/12 05:17:56;;;;;;;12.07;10.43;;;16.20;99.90;;;;;;5050344;28;20452;-70
2022/06/12 05:20:28;;;;;;;11.10;10.00;;;16.30;99.90;;;;;;5049505;28;20737;-70
2022/06/12 05:22:57;;;;;;;12.20;11.00;;;16.30;99.90;;;;;;5050136;28;20460;-70
2022/06/12 05:25:24;;;;;;;9.47;8.60;;;16.40;99.90;;;;;;5049682;28;20883;-69
2022/06/12 05:27:52;;;;;;;10.70;9.70;;;16.40;99.90;;;;;;5049824;28;20447;-69
2022/06/12 05:30:22;;;;;;;10.27;9.20;;;16.50;99.90;;;;;;5049278;28;20448;-70
2022/06/12 05:32:51;;;;;;;10.13;9.13;;;16.70;99.90;;;;;;5049946;28;20816;-69
2022/06/12 05:35:19;;;;;;;10.87;9.80;;;16.80;99.90;;;;;;5049611;28;21004;-69
2022/06/12 05:37:47;;;;;;;10.93;8.80;;;16.80;99.90;;;;;;5050053;28;20461;-70
2022/06/12 05:40:18;;;;;;;10.40;9.30;;;16.90;99.90;;;;;;5048934;28;20455;-70
2022/06/12 05:42:45;;;;;;;10.23;9.27;;;17.00;99.90;;;;;;5049931;28;20487;-70
2022/06/12 05:45:15;;;;;;;10.00;9.00;;;17.10;99.90;;;;;;5049273;28;20930;-70
2022/06/12 05:47:46;;;;;;;9.47;8.50;;;17.20;99.90;;;;;;5049919;28;20451;-70
2022/06/12 05:50:13;;;;;;;11.97;9.20;;;17.30;99.90;;;;;;5049078;28;20448;-70
2022/06/12 05:52:40;;;;;;;9.93;8.77;;;17.40;99.90;;;;;;5049382;28;21013;-71
2022/06/12 05:55:08;;;;;;;8.70;7.87;;;17.50;99.90;;;;;;5049315;28;20458;-70
2022/06/12 05:57:37;;;;;;;8.93;8.13;;;17.60;99.90;;;;;;5049649;28;20448;-70
2022/06/12 06:00:06;;;;;;;8.00;7.20;;;17.70;99.90;;;;;;5048669;28;21317;-71
2022/06/12 06:02:34;;;;;;;9.03;8.03;;;17.80;99.90;;;;;;5049405;28;20462;-70
2022/06/12 06:05:01;;;;;;;10.43;8.40;;;18.00;99.90;;;;;;5049183;28;20456;-70
2022/06/12 06:07:28;;;;;;;8.27;7.47;;;18.10;99.90;;;;;;5049169;28;20534;-70
2022/06/12 06:09:55;;;;;;;9.13;7.30;;;18.20;99.90;;;;;;5048694;28;20456;-70
2022/06/12 06:12:22;;;;;;;8.37;7.57;;;18.30;99.90;;;;;;5049336;28;20488;-70
2022/06/12 06:14:50;;;;;;;8.03;7.23;;;18.40;99.90;;;;;;5048820;28;20448;-70
2022/06/12 06:17:17;;;;;;;8.30;7.50;;;18.50;99.90;;;;;;5049527;28;20444;-70
2022/06/12 06:19:43;;;;;;;7.60;6.90;;;18.60;99.90;;;;;;5048923;28;20451;-69
2022/06/12 06:22:10;;;;;;;9.17;7.50;;;18.70;99.90;;;;;;5049208;28;20464;-70
2022/06/12 06:24:37;;;;;;;8.00;7.20;;;18.80;99.90;;;;;;5049134;28;20466;-70
2022/06/12 06:27:04;;;;;;;7.10;6.40;;;18.90;99.90;;;;;;5049447;28;20452;-71
2022/06/12 06:29:31;;;;;;;7.50;6.70;;;19.00;99.90;;;;;;5049459;28;20447;-70
2022/06/12 06:31:59;;;;;;;7.90;6.40;;;19.00;99.90;;;;;;5048496;28;20495;-71
2022/06/12 06:34:26;;;;;;;8.00;7.20;;;19.10;99.90;;;;;;5048817;28;20458;-70
2022/06/12 06:36:52;;;;;;;6.80;6.20;;;19.30;99.90;;;;;;5049495;28;20539;-70
2022/06/12 06:39:19;;;;;;;11.47;6.87;;;19.40;99.90;;;;;;5049458;28;20448;-70
2022/06/12 06:41:46;;;;;;;8.33;7.47;;;19.60;99.90;;;;;;5048469;28;20464;-71
2022/06/12 06:46:58;;;;;;;7.30;6.60;;;19.80;99.90;;;;;;5049446;28;20419;-71
2022/06/12 06:49:25;;;;;;;7.80;7.00;;;19.90;99.90;;;;;;5049596;28;20562;-70
2022/06/12 06:51:52;;;;;;;8.10;7.30;;;19.90;99.90;;;;;;5048693;28;20487;-70
2022/06/12 06:54:19;;;;;;;7.47;6.40;;;20.00;99.90;;;;;;5049161;28;20448;-70
2022/06/12 06:56:47;;;;;;;7.70;6.40;;;20.00;99.90;;;;;;5049502;28;20530;-70
2022/06/12 06:59:14;;;;;;;6.77;6.27;;;20.20;99.90;;;;;;5049300;28;20451;-70
2022/06/12 07:01:40;;;;;;;8.83;7.20;;;20.30;99.90;;;;;;5048333;28;21120;-70
2022/06/12 07:04:08;;;;;;;7.13;6.33;;;20.40;99.90;;;;;;5049325;28;20448;-71
2022/06/12 07:06:35;;;;;;;9.13;7.47;;;20.40;99.90;;;;;;5048865;28;20808;-71
2022/06/12 07:09:03;;;;;;;8.13;7.20;;;20.60;99.90;;;;;;5048918;28;20456;-70
2022/06/12 07:11:31;;;;;;;7.27;6.57;;;20.70;99.90;;;;;;5048076;28;20488;-71
2022/06/12 07:13:58;;;;;;;6.73;6.00;;;20.70;99.90;;;;;;5048762;28;20447;-71
2022/06/12 07:16:26;;;;;;;7.43;6.73;;;20.80;99.90;;;;;;5048676;28;20454;-70
2022/06/12 07:18:53;;;;;;;6.83;5.70;;;20.90;99.90;;;;;;5049118;28;20450;-71
2022/06/12 07:21:22;;;;;;;7.00;6.30;;;21.10;99.90;;;;;;5048121;28;20475;-70
2022/06/12 07:23:50;;;;;;;7.33;6.60;;;21.30;99.90;;;;;;5048867;28;20451;-70
2022/06/12 07:26:21;;;;;;;7.00;6.30;;;21.40;99.90;;;;;;5049841;28;20444;-70
2022/06/12 07:28:48;;;;;;;7.83;6.30;;;21.60;99.90;;;;;;5052213;28;20906;-71
2022/06/12 07:31:15;;;;;;;8.27;6.60;;;21.70;99.90;;;;;;5051220;28;20487;-71
2022/06/12 07:33:42;;;;;;;8.90;6.83;;;21.80;99.90;;;;;;5052406;28;20825;-71
2022/06/12 07:36:11;;;;;;;6.77;6.00;;;22.00;99.90;;;;;;5051952;28;20447;-71
2022/06/12 07:38:39;;;;;;;7.00;5.87;;;22.10;99.90;;;;;;5052253;28;20454;-71
2022/06/12 07:41:10;;;;;;;7.90;6.80;;;22.30;99.90;;;;;;5051269;28;20495;-71
2022/06/12 07:43:38;;;;;;;7.13;6.40;;;22.40;99.90;;;;;;5051699;28;20531;-71
2022/06/12 07:46:08;;;;;;;9.33;6.47;;;22.40;99.90;;;;;;5051732;28;20506;-71
2022/06/12 07:48:35;;;;;;;6.60;5.97;;;22.50;99.90;;;;;;5051989;28;20454;-71
2022/06/12 07:51:04;;;;;;;12.03;6.93;;;22.50;99.90;;;;;;5050973;28;20544;-70
2022/06/12 07:53:32;;;;;;;8.40;6.30;;;22.60;99.90;;;;;;5051733;28;20447;-71
2022/06/12 07:56:01;;;;;;;8.17;7.07;;;22.70;99.90;;;;;;5051797;28;20821;-70
2022/06/12 07:58:28;;;;;;;9.73;5.77;;;22.80;99.90;;;;;;5051898;28;20536;-71
2022/06/12 08:01:00;;;;;;;7.10;6.40;;;22.90;99.90;;;;;;5050607;28;20443;-70
2022/06/12 08:03:28;;;;;;;6.33;5.67;;;23.00;99.90;;;;;;5051698;28;20208;-70
2022/06/12 08:05:55;;;;;;;7.00;6.40;;;23.20;99.90;;;;;;5051190;28;20454;-70
2022/06/12 08:08:22;;;;;;;8.13;6.73;;;23.30;99.90;;;;;;5051359;28;20838;-71
2022/06/12 08:10:49;;;;;;;7.47;6.70;;;23.40;99.90;;;;;;5050735;28;20867;-71
2022/06/12 08:13:18;;;;;;;8.87;6.63;;;23.50;99.90;;;;;;5051514;28;20480;-71
2022/06/12 08:15:48;;;;;;;6.97;5.97;;;23.50;99.90;;;;;;5051226;28;20444;-70
2022/06/12 08:18:16;;;;;;;9.23;6.60;;;23.50;99.90;;;;;;5051481;28;20452;-71
2022/06/12 08:20:46;;;;;;;7.30;6.60;;;23.70;99.90;;;;;;5050339;28;20446;-71
2022/06/12 08:23:27;;;;;;;7.30;6.00;;;23.80;99.90;;;;;;5051454;28;20505;-71
2022/06/12 08:25:55;;;;;;;9.27;6.80;;;24.00;99.90;;;;;;5050941;28;20454;-71
2022/06/12 08:28:24;;;;;;;9.93;6.50;;;24.10;99.90;;;;;;5051126;28;20950;-70
2022/06/12 08:30:51;;;;;;;7.07;6.47;;;24.10;99.90;;;;;;5050279;28;20471;-70
2022/06/12 08:33:18;;;;;;;6.70;6.00;;;24.20;99.90;;;;;;5051219;28;20549;-71
2022/06/12 08:35:45;;;;;;;5.93;5.40;;;24.20;99.90;;;;;;5050841;28;20448;-70
2022/06/12 08:38:12;;;;;;;6.80;6.10;;;24.30;99.90;;;;;;5050972;28;20444;-71
2022/06/12 08:40:48;;;;;;;6.87;6.27;;;24.50;99.90;;;;;;5050245;28;20851;-71
2022/06/12 08:43:23;;;;;;;6.43;5.77;;;24.50;99.90;;;;;;5050943;28;20459;-70
2022/06/12 08:45:54;;;;;;;6.90;6.27;;;24.70;99.90;;;;;;5050606;28;20538;-71
2022/06/12 08:48:29;;;;;;;6.87;6.17;;;24.90;99.90;;;;;;5050974;28;20448;-71
2022/06/12 08:51:02;;;;;;;8.20;6.27;;;24.90;99.90;;;;;;5049948;28;20483;-70
2022/06/12 08:53:39;;;;;;;6.07;5.57;;;25.00;99.90;;;;;;5050892;28;20479;-71
2022/06/12 08:56:13;;;;;;;7.00;6.20;;;25.20;99.90;;;;;;5050305;28;20448;-71
2022/06/12 08:58:44;;;;;;;6.90;6.30;;;25.30;99.90;;;;;;5050957;28;20929;-71
2022/06/12 09:01:13;;;;;;;6.40;5.80;;;25.30;99.90;;;;;;5050038;28;20862;-72
2022/06/12 09:03:44;;;;;;;6.33;5.73;;;25.50;99.90;;;;;;5050591;28;20462;-71
2022/06/12 09:06:20;;;;;;;6.00;5.00;;;25.60;99.90;;;;;;5050231;28;20518;-70
2022/06/12 09:08:52;;;;;;;8.23;5.20;;;25.60;99.90;;;;;;5050353;28;20967;-70
2022/06/12 09:11:24;;;;;;;6.17;5.57;;;25.60;99.90;;;;;;5049570;28;20460;-70
2022/06/12 09:13:58;;;;;;;5.40;4.60;;;25.70;99.90;;;;;;5050720;28;20440;-71
2022/06/12 09:16:38;;;;;;;6.83;5.73;;;25.80;99.90;;;;;;5050082;28;20454;-70
2022/06/12 09:19:11;;;;;;;4.93;4.43;;;26.00;99.90;;;;;;5050345;28;20450;-70
2022/06/12 09:21:47;;;;;;;7.67;3.67;;;25.80;99.90;;;;;;5049676;28;20470;-71
2022/06/12 09:24:27;;;;;;;5.90;4.00;;;25.90;99.90;;;;;;5050456;28;20820;-71
2022/06/12 09:27:03;;;;;;;4.33;3.33;;;26.10;98.20;;;;;;5050384;28;20440;-70
2022/06/12 09:29:40;;;;;;;4.77;3.40;;;26.20;97.60;;;;;;5050237;28;20450;-71
2022/06/12 09:32:18;;;;;;;4.93;3.60;;;26.40;98.00;;;;;;5049642;28;20479;-71
2022/06/12 09:34:58;;;;;;;7.53;3.97;;;26.50;99.90;;;;;;5049960;28;20448;-70
2022/06/12 09:40:33;;;;;;;5.90;4.30;;;27.10;98.80;;;;;;5049291;28;20478;-71
2022/06/12 09:43:04;;;;;;;5.73;3.60;;;27.30;99.00;;;;;;5050033;28;20456;-69
2022/06/12 09:45:43;;;;;;;3.90;3.50;;;27.40;96.90;;;;;;5049450;28;20448;-70
2022/06/12 09:48:21;;;;;;;3.67;3.30;;;27.10;96.20;;;;;;5049400;28;20454;-70
2022/06/12 09:50:59;;;;;;;4.77;3.40;;;27.20;95.70;;;;;;5048981;28;20454;-70
2022/06/12 09:53:51;;;;;;;4.30;3.27;;;27.40;95.70;;;;;;5049799;28;20490;-71
2022/06/12 09:56:24;;;;;;;4.13;3.20;;;27.80;95.00;;;;;;5049317;28;20810;-72
2022/06/12 09:58:59;;;;;;;3.80;2.97;;;28.00;92.90;;;;;;5049694;28;20535;-69
2022/06/12 10:01:29;;;;;;;4.60;3.17;;;28.30;92.40;;;;;;5049003;28;20470;-71
2022/06/12 10:04:02;;;;;;;4.40;3.03;;;29.00;92.50;;;;;;5049644;28;20452;-70
2022/06/12 10:06:35;;;;;;;5.07;2.60;;;29.80;90.30;;;;;;5049237;28;20458;-71
2022/06/12 10:09:07;;;;;;;2.87;2.30;;;30.90;90.00;;;;;;5049310;28;20898;-71
2022/06/12 10:11:38;;;;;;;4.07;3.00;;;32.20;86.80;;;;;;5048575;28;20479;-71
2022/06/12 10:14:09;;;;;;;3.07;2.50;;;33.20;80.20;;;;;;5049568;28;20494;-71
2022/06/12 10:16:40;;;;;;;3.50;2.37;;;34.00;82.20;;;;;;5049097;28;20962;-71
2022/06/12 10:19:15;;;;;;;4.00;2.27;;;34.60;75.60;;;;;;5049958;28;20448;-71
2022/06/12 10:21:45;;;;;;;2.77;2.40;;;34.80;71.30;;;;;;5048472;28;20459;-71
2022/06/12 10:24:13;;;;;;;3.70;2.70;;;35.20;64.60;;;;;;5049284;28;20440;-71
2022/06/12 10:26:40;;;;;;;4.93;2.80;;;34.70;63.40;;;;;;5049085;28;20492;-70
2022/06/12 10:29:11;;;;;;;5.57;2.70;;;33.80;65.10;;;;;;5049323;28;20933;-70
2022/06/12 10:31:47;;;;;;;3.60;2.73;;;33.70;66.90;;;;;;5048584;28;20471;-70
2022/06/12 10:34:20;;;;;;;4.73;3.00;;;34.10;65.00;;;;;;5049334;28;20439;-71
2022/06/12 10:36:47;;;;;;;4.47;2.70;;;34.00;65.80;;;;;;5049376;28;20448;-70
2022/06/12 10:39:17;;;;;;;4.63;3.73;;;34.00;67.20;;;;;;5049358;28;20451;-70
2022/06/12 10:41:48;;;;;;;3.57;2.97;;;34.00;64.30;;;;;;5048555;28;21044;-70
2022/06/12 10:44:33;;;;;;;6.17;3.10;;;33.70;66.40;;;;;;5049068;28;20569;-70
2022/06/12 10:47:14;;;;;;;4.50;3.20;;;32.50;65.00;;;;;;5049047;28;20950;-71
2022/06/12 10:49:43;;;;;;;4.23;3.27;;;32.50;66.30;;;;;;5049030;28;20448;-71
2022/06/12 10:52:17;;;;;;;4.00;2.50;;;32.90;68.80;;;;;;5048580;28;20558;-72
2022/06/12 10:54:45;;;;;;;3.30;2.50;;;33.60;67.50;;;;;;5048837;28;20448;-71
2022/06/12 10:57:28;;;;;;;3.70;3.20;;;33.90;60.80;;;;;;5049417;28;20479;-71
2022/06/12 11:00:01;;;;;;;3.40;2.13;;;32.90;62.00;;;;;;5048288;28;20451;-70
2022/06/12 11:02:43;;;;;;;3.83;2.50;;;33.10;66.20;;;;;;5052251;28;20467;-70
2022/06/12 11:05:49;;;;;;;6.30;2.90;;;32.80;63.70;;;;;;5052233;28;20452;-70
2022/06/12 11:08:42;;;;;;;3.30;2.67;;;32.80;66.40;;;;;;5052528;28;20454;-70
2022/06/12 11:11:20;;;;;;;4.30;2.70;;;33.80;64.50;;;;;;5052017;28;20468;-71
2022/06/12 11:14:08;;;;;;;3.90;2.53;;;34.80;64.10;;;;;;5052705;28;20487;-71
2022/06/12 11:16:48;;;;;;;4.20;2.30;;;34.80;60.90;;;;;;5052136;28;20458;-71
2022/06/12 11:19:27;;;;;;;3.50;2.67;;;35.60;60.60;;;;;;5052611;28;20456;-71
2022/06/12 11:22:03;;;;;;;4.03;2.70;;;36.10;58.90;;;;;;5051520;28;20460;-71
2022/06/12 11:24:40;;;;;;;3.60;2.10;;;36.10;56.90;;;;;;5052197;28;20451;-71
2022/06/12 11:27:28;;;;;;;5.00;2.67;;;36.00;57.30;;;;;;5052485;28;20450;-71
2022/06/12 11:30:19;;;;;;;5.33;2.60;;;35.50;57.30;;;;;;5051517;28;20455;-70
2022/06/12 11:33:01;;;;;;;6.27;2.43;;;34.90;56.90;;;;;;5052045;28;20993;-71
2022/06/12 11:35:38;;;;;;;3.67;2.60;;;33.80;58.10;;;;;;5052008;28;20440;-72
2022/06/12 11:38:21;;;;;;;3.97;2.97;;;33.50;61.30;;;;;;5052250;28;21147;-70
2022/06/12 11:40:57;;;;;;;4.03;2.97;;;34.30;61.60;;;;;;5051264;28;20459;-71
2022/06/12 11:43:32;;;;;;;4.00;2.70;;;35.10;58.50;;;;;;5052433;28;20482;-68
2022/06/12 11:46:10;;;;;;;4.60;2.27;;;35.40;58.10;;;;;;5051911;28;20447;-69
2022/06/12 11:49:07;;;;;;;3.23;2.33;;;35.70;59.60;;;;;;5052039;28;20454;-70
2022/06/12 11:51:42;;;;;;;3.43;2.80;;;34.90;56.30;;;;;;5051357;28;20547;-71
2022/06/12 11:54:35;;;;;;;2.90;2.60;;;34.30;56.70;;;;;;5052131;28;20483;-70
2022/06/12 11:57:10;;;;;;;3.73;2.87;;;35.00;62.60;;;;;;5052192;28;20483;-70
2022/06/12 11:59:46;;;;;;;3.60;2.77;;;35.30;57.20;;;;;;5052165;28;20780;-69
2022/06/12 12:02:22;;;;;;;4.07;2.57;;;36.00;55.30;;;;;;5051961;28;20460;-71
2022/06/12 12:05:20;;;;;;;3.30;2.50;;;36.60;56.90;;;;;;5051611;28;20447;-71
2022/06/12 12:08:02;;;;;;;3.83;2.30;;;37.20;55.20;;;;;;5048322;28;20954;-70
2022/06/12 12:10:46;;;;;;;2.73;2.40;;;37.60;53.30;;;;;;5051237;28;20439;-70
2022/06/12 12:13:16;;;;;;;3.23;2.23;;;36.70;52.40;;;;;;5051518;28;20854;-70
2022/06/12 12:15:47;;;;;;;3.00;2.57;;;35.70;53.80;;;;;;5051328;28;20535;-68
2022/06/12 12:18:22;;;;;;;3.13;2.67;;;35.00;54.80;;;;;;5051511;28;20444;-71
2022/06/12 12:20:51;;;;;;;4.03;2.50;;;34.40;55.90;;;;;;5050735;28;20448;-70
2022/06/12 12:23:23;;;;;;;3.87;2.60;;;34.60;56.50;;;;;;5051468;28;20440;-71
2022/06/12 12:25:57;;;;;;;3.27;2.77;;;34.90;56.20;;;;;;5051010;28;20455;-71
2022/06/12 12:28:32;;;;;;;5.53;2.67;;;34.50;55.30;;;;;;5051210;28;20444;-70
2022/06/12 12:31:03;;;;;;;4.70;2.80;;;34.70;55.30;;;;;;5050487;28;20479;-72
2022/06/12 12:33:31;;;;;;;5.10;3.20;;;34.80;57.30;;;;;;5051195;28;20486;-72
2022/06/12 12:41:44;;;;;;;3.23;2.50;;;34.60;56.60;;;;;;5049948;28;20509;-71
2022/06/12 12:44:13;;;;;;;3.87;3.37;;;34.40;59.30;;;;;;5050972;28;20440;-71
2022/06/12 12:46:44;;;;;;;3.60;2.90;;;34.90;59.10;;;;;;5050732;28;20502;-71
2022/06/12 12:49:22;;;;;;;4.53;2.97;;;35.30;55.60;;;;;;5050832;28;20444;-70
2022/06/12 12:51:49;;;;;;;4.03;2.77;;;35.40;54.60;;;;;;5049902;28;20463;-70
2022/06/12 12:54:19;;;;;;;4.77;2.97;;;35.00;55.70;;;;;;5050680;28;20514;-68
2022/06/12 12:56:59;;;;;;;4.13;2.90;;;33.90;55.90;;;;;;5050846;28;20441;-71
2022/06/12 12:59:36;;;;;;;3.83;2.73;;;33.30;57.30;;;;;;5050800;28;20458;-71
2022/06/12 13:02:21;;;;;;;3.07;2.67;;;32.60;61.50;;;;;;5049820;28;20837;-71
2022/06/12 13:04:48;;;;;;;3.60;2.93;;;32.70;61.60;;;;;;5050184;28;20446;-71
2022/06/12 13:07:29;;;;;;;2.80;2.40;;;33.00;59.50;;;;;;5050484;28;20950;-70
2022/06/12 13:10:24;;;;;;;4.70;3.47;;;32.80;59.40;;;;;;5049700;28;20450;-71
2022/06/12 13:13:23;;;;;;;3.67;3.00;;;33.20;68.00;;;;;;5050259;28;20460;-71
2022/06/12 13:15:55;;;;;;;3.10;2.80;;;34.70;62.00;;;;;;5050192;28;20869;-71
2022/06/12 13:18:53;;;;;;;3.73;3.13;;;34.90;55.30;;;;;;5050405;28;20449;-71
2022/06/12 13:21:25;;;;;;;4.50;3.10;;;33.30;56.60;;;;;;5049567;28;20464;-71
2022/06/12 13:24:28;;;;;;;4.47;3.33;;;32.00;61.70;;;;;;5049597;28;20813;-71